Time;durP1;ratioP1;P1;durP2;ratioP2;P2;SDS_P1;SDS_P2;PMS_P1;PMS_P2;Temp;Humidity;BMP_temperature;BMP_pressure;BME280_temperature;BME280_humidity;BME280_pressure;Samples;Min_cycle;Max_cycle;Signal;HPM_P1;HPM_P2
2023/05/19 00:00:07;;;;;;;3.65;1.70;;;;;;;;;;5014961;28;20184;-52
2023/05/19 00:02:33;;;;;;;1.75;1.20;;;;;;;;;;5013330;28;20559;-52
2023/05/19 00:05:00;;;;;;;1.80;1.20;;;;;;;;;;5017812;28;20180;-52
2023/05/19 00:07:29;;;;;;;4.82;1.80;;;;;;;;;;5014198;28;20571;-52
2023/05/19 00:09:55;;;;;;;1.73;1.38;;;;;;;;;;5013577;28;20185;-52
2023/05/19 00:12:21;;;;;;;2.85;1.40;;;;;;;;;;5015409;28;20203;-52
2023/05/19 00:14:47;;;;;;;3.25;1.70;;;;;;;;;;5013277;28;20242;-52
2023/05/19 00:17:15;;;;;;;1.60;1.17;;;;;;;;;;5016061;28;20486;-52
2023/05/19 00:19:41;;;;;;;1.83;1.30;;;;;;;;;;5015027;28;20189;-52
2023/05/19 00:22:07;;;;;;;3.50;1.33;;;;;;;;;;5013912;28;20214;-52
2023/05/19 00:24:34;;;;;;;2.95;1.30;;;;;;;;;;5014380;28;20176;-52
2023/05/19 00:27:00;;;;;;;1.25;1.13;;;;;;;;;;5008639;28;20201;-52
2023/05/19 00:29:26;;;;;;;1.50;1.25;;;;;;;;;;5008198;28;20629;-52
2023/05/19 00:31:51;;;;;;;1.52;1.20;;;;;;;;;;5017201;28;20208;-52
2023/05/19 00:34:17;;;;;;;1.88;1.30;;;;;;;;;;5017912;28;20184;-52
2023/05/19 00:36:44;;;;;;;2.22;1.30;;;;;;;;;;5017855;28;20556;-52
2023/05/19 00:39:10;;;;;;;1.75;1.30;;;;;;;;;;5016193;28;20192;-52
2023/05/19 00:41:36;;;;;;;3.47;1.63;;;;;;;;;;5016152;28;20615;-52
2023/05/19 00:44:02;;;;;;;2.30;1.30;;;;;;;;;;5012813;28;20193;-52
2023/05/19 00:46:29;;;;;;;2.45;1.50;;;;;;;;;;5011188;28;20459;-52
2023/05/19 00:48:55;;;;;;;4.68;1.70;;;;;;;;;;5012440;28;20276;-52
2023/05/19 00:51:22;;;;;;;1.95;1.50;;;;;;;;;;5016186;28;20263;-52
2023/05/19 00:53:49;;;;;;;2.28;1.50;;;;;;;;;;5014957;28;20188;-52
2023/05/19 00:56:16;;;;;;;1.70;1.60;;;;;;;;;;5013937;28;20180;-52
2023/05/19 00:58:42;;;;;;;2.05;1.30;;;;;;;;;;5014419;28;20208;-52
2023/05/19 01:01:08;;;;;;;1.80;1.50;;;;;;;;;;5031578;28;20208;-52
2023/05/19 01:03:34;;;;;;;2.42;1.48;;;;;;;;;;5014591;28;20196;-52
2023/05/19 01:06:03;;;;;;;2.53;1.50;;;;;;;;;;5013668;28;20180;-52
2023/05/19 01:08:30;;;;;;;2.53;1.58;;;;;;;;;;5007934;28;20177;-52
2023/05/19 01:10:56;;;;;;;2.22;1.65;;;;;;;;;;5015918;28;20184;-52
2023/05/19 01:13:22;;;;;;;1.75;1.38;;;;;;;;;;5016280;28;20474;-52
2023/05/19 01:15:57;;;;;;;2.20;1.58;;;;;;;;;;5012088;28;20178;-52
2023/05/19 01:18:29;;;;;;;2.85;1.40;;;;;;;;;;5016656;28;20184;-52
2023/05/19 01:21:02;;;;;;;2.58;1.23;;;;;;;;;;5015647;28;20282;-52
2023/05/19 01:23:35;;;;;;;1.52;1.33;;;;;;;;;;5017721;28;20173;-52
2023/05/19 01:26:11;;;;;;;2.05;1.33;;;;;;;;;;5012370;28;20185;-52
2023/05/19 01:28:49;;;;;;;2.55;1.65;;;;;;;;;;5005954;28;20188;-52
2023/05/19 01:31:16;;;;;;;2.10;1.60;;;;;;;;;;5006228;28;20185;-52
2023/05/19 01:33:43;;;;;;;2.63;1.40;;;;;;;;;;5007202;28;20189;-52
2023/05/19 01:36:10;;;;;;;1.58;1.40;;;;;;;;;;5011179;28;20185;-52
2023/05/19 01:38:37;;;;;;;1.98;1.38;;;;;;;;;;5014201;28;20231;-52
2023/05/19 01:41:03;;;;;;;1.50;1.40;;;;;;;;;;5012701;28;20583;-52
2023/05/19 01:43:29;;;;;;;2.03;1.42;;;;;;;;;;5010347;28;20184;-52
2023/05/19 01:45:57;;;;;;;1.52;1.40;;;;;;;;;;5014806;28;20202;-52
2023/05/19 01:48:23;;;;;;;3.05;1.92;;;;;;;;;;5015330;28;20188;-52
2023/05/19 01:50:50;;;;;;;2.75;1.70;;;;;;;;;;5015245;28;20552;-52
2023/05/19 01:53:16;;;;;;;2.85;1.60;;;;;;;;;;5010081;28;20189;-52
2023/05/19 01:55:47;;;;;;;1.90;1.58;;;;;;;;;;5024903;28;20177;-52
2023/05/19 01:58:31;;;;;;;2.15;1.42;;;;;;;;;;5007486;28;20208;-52
2023/05/19 02:01:16;;;;;;;2.50;1.60;;;;;;;;;;5010545;28;20210;-52
2023/05/19 02:04:02;;;;;;;1.85;1.55;;;;;;;;;;5010070;28;20176;-52
2023/05/19 02:06:28;;;;;;;1.67;1.35;;;;;;;;;;5007373;28;20583;-52
2023/05/19 02:08:57;;;;;;;1.73;1.60;;;;;;;;;;5003015;28;20263;-52
2023/05/19 02:11:26;;;;;;;2.17;1.52;;;;;;;;;;5014468;28;20187;-52
2023/05/19 02:13:55;;;;;;;2.47;1.33;;;;;;;;;;5015039;28;20195;-52
2023/05/19 02:16:24;;;;;;;1.63;1.30;;;;;;;;;;5015643;28;20176;-52
2023/05/19 02:18:52;;;;;;;2.50;1.33;;;;;;;;;;5030925;28;20196;-52
2023/05/19 02:21:18;;;;;;;2.50;1.58;;;;;;;;;;5015100;28;20235;-52
2023/05/19 02:23:44;;;;;;;1.77;1.25;;;;;;;;;;5003854;28;20516;-52
2023/05/19 02:26:10;;;;;;;2.20;1.42;;;;;;;;;;5012044;28;20192;-52
2023/05/19 02:28:36;;;;;;;2.67;1.50;;;;;;;;;;5015645;28;20427;-52
2023/05/19 02:31:05;;;;;;;2.00;1.58;;;;;;;;;;5010413;28;20185;-52
2023/05/19 02:33:31;;;;;;;2.50;1.65;;;;;;;;;;5010723;28;20184;-52
2023/05/19 02:35:57;;;;;;;1.63;1.30;;;;;;;;;;5009939;28;20476;-52
2023/05/19 02:38:23;;;;;;;1.90;1.40;;;;;;;;;;5012376;28;20191;-52
2023/05/19 02:40:51;;;;;;;2.50;1.60;;;;;;;;;;5010852;28;20272;-52
2023/05/19 02:43:17;;;;;;;1.55;1.38;;;;;;;;;;5009619;28;20180;-52
2023/05/19 02:45:43;;;;;;;1.65;1.35;;;;;;;;;;5005505;28;20239;-52
2023/05/19 02:48:09;;;;;;;1.75;1.48;;;;;;;;;;5007506;28;20191;-52
2023/05/19 02:50:35;;;;;;;1.63;1.38;;;;;;;;;;5011078;28;20169;-52
2023/05/19 02:53:01;;;;;;;1.42;1.30;;;;;;;;;;5014329;28;20196;-52
2023/05/19 02:55:27;;;;;;;3.10;1.63;;;;;;;;;;5015186;28;20172;-52
2023/05/19 02:57:53;;;;;;;1.92;1.30;;;;;;;;;;5029903;28;20204;-51
2023/05/19 03:00:19;;;;;;;1.58;1.27;;;;;;;;;;5013644;28;20192;-52
2023/05/19 03:02:45;;;;;;;2.70;1.42;;;;;;;;;;5011483;28;20226;-52
2023/05/19 03:05:11;;;;;;;1.60;1.33;;;;;;;;;;5012722;28;20461;-52
2023/05/19 03:07:37;;;;;;;1.50;1.40;;;;;;;;;;5010284;28;20184;-52
2023/05/19 03:10:04;;;;;;;1.83;1.45;;;;;;;;;;5009952;28;20319;-52
2023/05/19 03:12:31;;;;;;;1.63;1.30;;;;;;;;;;5003988;28;20172;-52
2023/05/19 03:14:57;;;;;;;1.98;1.30;;;;;;;;;;5011381;28;20272;-52
2023/05/19 03:17:23;;;;;;;1.40;1.15;;;;;;;;;;5007623;28;20639;-52
2023/05/19 03:19:50;;;;;;;1.30;1.20;;;;;;;;;;5014059;28;20196;-52
2023/05/19 03:22:17;;;;;;;1.92;1.40;;;;;;;;;;5027701;28;20226;-52
2023/05/19 03:24:43;;;;;;;1.45;1.30;;;;;;;;;;5013814;28;20186;-52
2023/05/19 03:27:09;;;;;;;2.58;1.33;;;;;;;;;;5014832;28;20181;-52
2023/05/19 03:29:36;;;;;;;1.83;1.40;;;;;;;;;;5012599;28;20598;-52
2023/05/19 03:32:01;;;;;;;1.83;1.02;;;;;;;;;;5008310;28;20671;-52
2023/05/19 03:34:27;;;;;;;2.08;1.40;;;;;;;;;;5014506;28;20212;-52
2023/05/19 03:36:53;;;;;;;12.50;4.00;;;;;;;;;;5009677;28;20227;-52
2023/05/19 03:39:19;;;;;;;17.23;4.88;;;;;;;;;;5007130;28;20189;-52
2023/05/19 03:41:45;;;;;;;10.45;3.67;;;;;;;;;;5011971;28;20220;-52
2023/05/19 03:44:11;;;;;;;15.88;3.75;;;;;;;;;;5007697;28;20180;-52
2023/05/19 03:46:37;;;;;;;14.55;4.32;;;;;;;;;;5001237;28;22155;-52
2023/05/19 03:49:03;;;;;;;21.90;5.60;;;;;;;;;;5007679;28;20180;-52
2023/05/19 03:51:29;;;;;;;24.20;6.50;;;;;;;;;;5008784;28;20196;-52
2023/05/19 03:53:55;;;;;;;21.17;5.97;;;;;;;;;;5011676;28;20227;-52
2023/05/19 03:56:23;;;;;;;32.83;8.23;;;;;;;;;;5014431;28;20254;-52
2023/05/19 03:58:49;;;;;;;27.67;7.85;;;;;;;;;;5012136;28;20599;-52
2023/05/19 04:01:15;;;;;;;30.85;8.38;;;;;;;;;;5009234;28;20226;-52
2023/05/19 04:03:41;;;;;;;31.83;8.60;;;;;;;;;;5014022;28;20226;-52
2023/05/19 04:06:07;;;;;;;28.35;7.78;;;;;;;;;;5011420;28;20898;-52
2023/05/19 04:08:33;;;;;;;31.70;8.63;;;;;;;;;;5009647;28;20185;-52
2023/05/19 04:10:59;;;;;;;28.27;8.23;;;;;;;;;;5007346;28;20571;-52
2023/05/19 04:13:25;;;;;;;34.60;10.00;;;;;;;;;;5012321;28;20527;-52
2023/05/19 04:15:51;;;;;;;31.83;9.93;;;;;;;;;;5013077;28;20188;-52
2023/05/19 04:18:17;;;;;;;36.05;10.25;;;;;;;;;;5012489;28;20181;-52
2023/05/19 04:20:43;;;;;;;33.72;9.23;;;;;;;;;;5007388;28;20204;-52
2023/05/19 04:23:09;;;;;;;28.73;9.23;;;;;;;;;;5013316;28;20482;-52
2023/05/19 04:25:35;;;;;;;27.95;9.40;;;;;;;;;;5029055;28;20453;-52
2023/05/19 04:28:01;;;;;;;36.85;9.73;;;;;;;;;;5012127;28;20646;-53
2023/05/19 04:30:28;;;;;;;31.90;9.32;;;;;;;;;;5013066;28;20181;-52
2023/05/19 04:32:56;;;;;;;36.05;9.80;;;;;;;;;;5012900;28;20188;-52
2023/05/19 04:35:22;;;;;;;29.83;9.05;;;;;;;;;;5011473;28;20189;-52
2023/05/19 04:37:48;;;;;;;28.15;9.63;;;;;;;;;;5012659;28;20192;-52
2023/05/19 04:40:14;;;;;;;26.10;9.13;;;;;;;;;;5016866;28;20185;-52
2023/05/19 04:42:41;;;;;;;30.80;8.82;;;;;;;;;;5016942;28;20564;-52
2023/05/19 04:45:08;;;;;;;31.25;9.68;;;;;;;;;;5016629;28;20223;-52
2023/05/19 04:47:37;;;;;;;28.13;9.57;;;;;;;;;;5015707;28;20177;-52
2023/05/19 04:50:04;;;;;;;26.90;8.90;;;;;;;;;;5015604;28;20193;-52
2023/05/19 04:52:30;;;;;;;34.03;8.98;;;;;;;;;;5017625;28;20259;-52
2023/05/19 04:54:56;;;;;;;29.42;9.38;;;;;;;;;;5030805;28;20207;-52
2023/05/19 04:57:21;;;;;;;26.58;8.68;;;;;;;;;;5015847;28;20552;-52
2023/05/19 04:59:48;;;;;;;28.23;9.32;;;;;;;;;;5015835;28;20210;-52
2023/05/19 05:02:14;;;;;;;28.17;9.75;;;;;;;;;;5015534;28;20287;-52
2023/05/19 05:04:42;;;;;;;25.90;8.82;;;;;;;;;;5017034;28;20271;-52
2023/05/19 05:07:08;;;;;;;24.10;8.15;;;;;;;;;;5016379;28;20180;-52
2023/05/19 05:09:34;;;;;;;28.25;8.63;;;;;;;;;;5014710;28;20415;-52
2023/05/19 05:12:01;;;;;;;22.13;7.75;;;;;;;;;;5016037;28;20750;-52
2023/05/19 05:14:27;;;;;;;26.23;8.20;;;;;;;;;;5015109;28;20215;-52
2023/05/19 05:16:53;;;;;;;21.30;8.95;;;;;;;;;;5015062;28;20199;-52
2023/05/19 05:19:20;;;;;;;24.20;8.50;;;;;;;;;;5011461;28;20189;-52
2023/05/19 05:21:47;;;;;;;22.55;8.00;;;;;;;;;;5016099;28;20192;-52
2023/05/19 05:24:13;;;;;;;30.90;8.98;;;;;;;;;;5015977;28;20514;-52
2023/05/19 05:26:39;;;;;;;18.95;6.75;;;;;;;;;;5015594;28;20513;-52
2023/05/19 05:29:05;;;;;;;22.40;7.90;;;;;;;;;;5027041;28;20218;-52
2023/05/19 05:31:31;;;;;;;20.92;7.97;;;;;;;;;;5013570;28;20271;-52
2023/05/19 05:33:57;;;;;;;22.00;7.78;;;;;;;;;;5015847;28;20278;-52
2023/05/19 05:36:23;;;;;;;18.75;6.97;;;;;;;;;;5014603;28;20556;-52
2023/05/19 05:38:49;;;;;;;21.55;7.10;;;;;;;;;;5030142;28;20181;-52
2023/05/19 05:41:15;;;;;;;23.17;7.63;;;;;;;;;;5008844;28;20560;-52
2023/05/19 05:43:41;;;;;;;18.77;7.55;;;;;;;;;;5012987;28;20191;-52
2023/05/19 05:46:07;;;;;;;19.45;7.18;;;;;;;;;;5028589;28;20176;-52
2023/05/19 05:48:33;;;;;;;18.73;7.15;;;;;;;;;;5008247;28;20172;-52
2023/05/19 05:51:00;;;;;;;20.75;7.38;;;;;;;;;;5012369;28;20484;-52
2023/05/19 05:53:28;;;;;;;15.95;6.07;;;;;;;;;;5014677;28;20208;-52
2023/05/19 05:55:54;;;;;;;17.67;7.50;;;;;;;;;;5013207;28;20189;-53
2023/05/19 05:58:21;;;;;;;18.17;7.10;;;;;;;;;;5014522;28;20201;-52
2023/05/19 06:00:50;;;;;;;16.90;6.75;;;;;;;;;;5014689;28;20184;-53
2023/05/19 06:03:16;;;;;;;21.08;7.63;;;;;;;;;;5015548;28;20596;-53
2023/05/19 06:05:42;;;;;;;13.40;6.53;;;;;;;;;;5014758;28;20266;-52
2023/05/19 06:08:07;;;;;;;17.52;6.57;;;;;;;;;;5007921;28;20197;-52
2023/05/19 06:10:35;;;;;;;19.38;6.53;;;;;;;;;;5004021;28;20228;-52
2023/05/19 06:13:01;;;;;;;15.70;6.35;;;;;;;;;;5010999;28;20237;-53
2023/05/19 06:15:27;;;;;;;18.60;6.53;;;;;;;;;;5030142;28;20679;-53
2023/05/19 06:17:53;;;;;;;15.05;6.63;;;;;;;;;;5009509;28;20192;-52
2023/05/19 06:20:19;;;;;;;17.70;6.00;;;;;;;;;;5022779;28;20189;-53
2023/05/19 06:22:45;;;;;;;13.93;6.20;;;;;;;;;;5008266;28;20272;-53
2023/05/19 06:25:11;;;;;;;14.75;6.18;;;;;;;;;;5015479;28;20231;-53
2023/05/19 06:27:37;;;;;;;17.17;6.53;;;;;;;;;;5013974;28;20184;-53
2023/05/19 06:30:03;;;;;;;20.10;6.47;;;;;;;;;;5011538;28;20181;-53
2023/05/19 06:32:29;;;;;;;13.30;6.13;;;;;;;;;;5012744;28;20208;-52
2023/05/19 06:34:55;;;;;;;15.52;5.78;;;;;;;;;;5014762;28;20231;-52
2023/05/19 06:37:24;;;;;;;14.65;6.00;;;;;;;;;;5013719;28;20188;-53
2023/05/19 06:39:51;;;;;;;13.90;6.07;;;;;;;;;;5013589;28;20646;-52
2023/05/19 06:42:21;;;;;;;15.77;5.43;;;;;;;;;;5015171;28;20211;-53
2023/05/19 06:44:47;;;;;;;15.73;5.38;;;;;;;;;;5011517;28;20556;-53
2023/05/19 06:47:13;;;;;;;13.48;4.82;;;;;;;;;;5014898;28;20271;-52
2023/05/19 06:49:38;;;;;;;11.88;5.05;;;;;;;;;;5011627;28;20288;-52
2023/05/19 06:52:05;;;;;;;12.38;5.30;;;;;;;;;;5008398;28;20188;-52
2023/05/19 06:54:30;;;;;;;11.48;5.22;;;;;;;;;;5008841;28;20724;-52
2023/05/19 06:56:56;;;;;;;14.18;5.13;;;;;;;;;;5009048;28;20196;-52
2023/05/19 06:59:22;;;;;;;15.57;5.55;;;;;;;;;;5004328;28;20212;-52
2023/05/19 07:01:48;;;;;;;15.95;5.50;;;;;;;;;;5013642;28;21293;-52
2023/05/19 07:04:14;;;;;;;11.15;4.85;;;;;;;;;;5007572;28;20185;-52
2023/05/19 07:06:40;;;;;;;11.65;4.78;;;;;;;;;;5014643;28;20222;-52
2023/05/19 07:09:07;;;;;;;12.48;5.07;;;;;;;;;;5009831;28;20191;-52
2023/05/19 07:11:33;;;;;;;10.25;5.38;;;;;;;;;;5013601;28;20172;-52
2023/05/19 07:13:59;;;;;;;9.95;4.97;;;;;;;;;;5011224;28;20192;-53
2023/05/19 07:16:25;;;;;;;11.88;5.05;;;;;;;;;;5014052;28;20188;-52
2023/05/19 07:18:51;;;;;;;12.23;4.93;;;;;;;;;;5008149;28;20331;-52
2023/05/19 07:21:17;;;;;;;14.48;5.20;;;;;;;;;;5007889;28;20183;-52
2023/05/19 07:23:43;;;;;;;12.50;5.00;;;;;;;;;;5013645;28;20180;-52
2023/05/19 07:26:09;;;;;;;9.30;4.82;;;;;;;;;;5010607;28;20470;-52
2023/05/19 07:28:35;;;;;;;9.38;4.75;;;;;;;;;;5013207;28;20292;-53
2023/05/19 07:31:01;;;;;;;9.80;4.90;;;;;;;;;;5005607;28;20231;-52
2023/05/19 07:33:27;;;;;;;10.95;4.50;;;;;;;;;;5012797;28;20173;-52
2023/05/19 07:35:53;;;;;;;11.27;4.20;;;;;;;;;;5011060;28;20483;-52
2023/05/19 07:38:19;;;;;;;9.68;4.45;;;;;;;;;;5009885;28;20184;-53
2023/05/19 07:40:45;;;;;;;9.15;4.05;;;;;;;;;;5002788;28;20240;-52
2023/05/19 07:43:11;;;;;;;10.63;5.15;;;;;;;;;;5013512;28;20232;-53
2023/05/19 07:45:37;;;;;;;9.35;4.50;;;;;;;;;;5013039;28;20657;-52
2023/05/19 07:48:03;;;;;;;13.30;5.13;;;;;;;;;;5009818;28;20271;-52
2023/05/19 07:50:29;;;;;;;10.75;4.55;;;;;;;;;;5005948;28;20208;-53
2023/05/19 07:52:55;;;;;;;9.90;4.32;;;;;;;;;;5013652;28;20536;-53
2023/05/19 07:55:21;;;;;;;8.95;4.38;;;;;;;;;;5024183;28;20189;-52
2023/05/19 07:57:48;;;;;;;9.73;4.15;;;;;;;;;;5013924;28;20200;-52
2023/05/19 08:00:14;;;;;;;9.15;3.83;;;;;;;;;;5012369;28;20184;-52
2023/05/19 08:02:40;;;;;;;11.90;4.63;;;;;;;;;;5007128;28;20649;-52
2023/05/19 08:05:08;;;;;;;6.93;3.90;;;;;;;;;;5011040;28;20191;-53
2023/05/19 08:07:33;;;;;;;9.18;3.97;;;;;;;;;;5014117;28;20181;-52
2023/05/19 08:09:59;;;;;;;7.43;3.78;;;;;;;;;;5011257;28;20227;-52
2023/05/19 08:12:25;;;;;;;8.93;4.30;;;;;;;;;;5032630;28;20525;-52
2023/05/19 08:14:51;;;;;;;11.05;4.57;;;;;;;;;;5011798;28;20614;-52
2023/05/19 08:17:17;;;;;;;9.05;3.88;;;;;;;;;;5019238;28;20195;-53
2023/05/19 08:19:43;;;;;;;10.23;4.03;;;;;;;;;;5016333;28;20224;-52
2023/05/19 08:22:09;;;;;;;9.65;3.95;;;;;;;;;;5013095;28;20636;-53
2023/05/19 08:24:36;;;;;;;9.85;4.35;;;;;;;;;;5017194;28;20177;-53
2023/05/19 08:27:03;;;;;;;6.65;3.25;;;;;;;;;;5014680;28;20185;-53
2023/05/19 08:29:29;;;;;;;8.27;3.60;;;;;;;;;;5014656;28;20219;-52
2023/05/19 08:31:57;;;;;;;7.97;3.67;;;;;;;;;;5013891;28;20188;-53
2023/05/19 08:34:23;;;;;;;6.38;3.53;;;;;;;;;;5017557;28;20207;-52
2023/05/19 08:36:49;;;;;;;7.57;3.13;;;;;;;;;;5017324;28;20544;-52
2023/05/19 08:39:17;;;;;;;7.88;4.00;;;;;;;;;;5016207;28;20299;-52
2023/05/19 08:41:51;;;;;;;7.53;4.20;;;;;;;;;;5010612;28;20201;-52
2023/05/19 08:44:17;;;;;;;5.90;3.00;;;;;;;;;;5013884;28;20176;-52
2023/05/19 08:46:43;;;;;;;7.15;3.53;;;;;;;;;;5009926;28;20196;-52
2023/05/19 08:49:12;;;;;;;7.45;3.63;;;;;;;;;;5016096;28;20192;-52
2023/05/19 08:51:42;;;;;;;9.68;3.90;;;;;;;;;;5012242;28;20173;-53
2023/05/19 08:54:12;;;;;;;8.20;4.30;;;;;;;;;;5016504;28;20530;-52
2023/05/19 08:56:51;;;;;;;5.85;3.00;;;;;;;;;;5032966;28;20264;-52
2023/05/19 08:59:17;;;;;;;6.97;3.10;;;;;;;;;;5015181;28;20231;-52
2023/05/19 09:01:47;;;;;;;6.72;3.55;;;;;;;;;;5015909;28;20196;-52
2023/05/19 09:04:13;;;;;;;5.90;3.40;;;;;;;;;;5015566;28;20267;-52
2023/05/19 09:06:43;;;;;;;6.32;3.10;;;;;;;;;;5014444;28;20192;-52
2023/05/19 09:09:09;;;;;;;6.15;3.17;;;;;;;;;;5013991;28;20189;-52
2023/05/19 09:11:36;;;;;;;5.13;3.05;;;;;;;;;;5013465;28;20234;-53
2023/05/19 09:14:02;;;;;;;6.18;2.83;;;;;;;;;;5008132;28;20186;-52
2023/05/19 09:16:28;;;;;;;6.95;2.90;;;;;;;;;;5013383;28;20299;-52
2023/05/19 09:18:55;;;;;;;7.50;2.90;;;;;;;;;;5015529;28;20267;-53
2023/05/19 09:21:27;;;;;;;5.32;2.85;;;;;;;;;;5010552;28;20196;-52
2023/05/19 09:23:54;;;;;;;4.93;3.10;;;;;;;;;;5014669;28;20318;-52
2023/05/19 09:26:22;;;;;;;4.70;2.70;;;;;;;;;;5012480;28;20173;-52
2023/05/19 09:28:48;;;;;;;4.75;2.97;;;;;;;;;;5015744;28;20180;-52
2023/05/19 09:31:14;;;;;;;4.80;2.35;;;;;;;;;;5010840;28;20173;-52
2023/05/19 09:33:41;;;;;;;5.38;3.10;;;;;;;;;;5015429;28;20511;-52
2023/05/19 09:36:09;;;;;;;3.85;2.72;;;;;;;;;;5010450;28;20193;-52
2023/05/19 09:38:36;;;;;;;5.80;2.95;;;;;;;;;;5015383;28;20180;-52
2023/05/19 09:41:02;;;;;;;4.93;2.55;;;;;;;;;;5012089;28;20185;-52
2023/05/19 09:43:28;;;;;;;6.47;2.67;;;;;;;;;;5010239;28;20595;-52
2023/05/19 09:45:55;;;;;;;7.07;2.92;;;;;;;;;;5007807;28;20180;-52
2023/05/19 09:48:21;;;;;;;5.50;2.70;;;;;;;;;;5011810;28;20196;-52
2023/05/19 09:50:50;;;;;;;6.93;3.08;;;;;;;;;;5009974;28;20231;-52
2023/05/19 09:53:17;;;;;;;6.15;3.05;;;;;;;;;;5015033;28;20188;-52
2023/05/19 09:55:43;;;;;;;6.07;2.60;;;;;;;;;;5015353;28;20176;-52
2023/05/19 09:58:09;;;;;;;5.45;2.63;;;;;;;;;;5016589;28;20218;-53
2023/05/19 10:00:35;;;;;;;5.18;2.60;;;;;;;;;;5011455;28;20246;-52
2023/05/19 10:03:03;;;;;;;5.85;2.80;;;;;;;;;;5010781;28;20234;-52
2023/05/19 10:05:29;;;;;;;5.07;2.58;;;;;;;;;;5013232;28;20185;-53
2023/05/19 10:07:55;;;;;;;7.28;3.60;;;;;;;;;;5012785;28;20515;-52
2023/05/19 10:10:22;;;;;;;7.88;3.83;;;;;;;;;;5007434;28;20200;-52
2023/05/19 10:12:48;;;;;;;9.20;3.65;;;;;;;;;;5015315;28;20180;-52
2023/05/19 10:15:16;;;;;;;9.18;4.00;;;;;;;;;;5031344;28;20200;-52
2023/05/19 10:17:43;;;;;;;11.13;4.35;;;;;;;;;;5013219;28;20195;-53
2023/05/19 10:20:11;;;;;;;11.52;5.03;;;;;;;;;;5014010;28;20254;-52
2023/05/19 10:22:37;;;;;;;15.13;4.85;;;;;;;;;;5013467;28;21697;-53
2023/05/19 10:25:04;;;;;;;11.90;4.47;;;;;;;;;;5013534;28;20195;-52
2023/05/19 10:27:31;;;;;;;14.00;4.90;;;;;;;;;;5009446;28;20200;-52
2023/05/19 10:29:58;;;;;;;15.50;4.82;;;;;;;;;;5009570;28;20184;-52
2023/05/19 10:32:26;;;;;;;18.70;5.32;;;;;;;;;;5014001;28;20193;-52
2023/05/19 10:35:08;;;;;;;11.45;4.85;;;;;;;;;;5014129;28;20275;-52
2023/05/19 10:37:38;;;;;;;10.40;4.75;;;;;;;;;;5029838;28;20193;-53
2023/05/19 10:40:10;;;;;;;15.27;5.60;;;;;;;;;;5010371;28;20242;-52
2023/05/19 10:42:40;;;;;;;11.88;4.78;;;;;;;;;;5007108;28;20261;-52
2023/05/19 10:45:13;;;;;;;13.32;5.43;;;;;;;;;;5011707;28;20188;-52
2023/05/19 10:47:42;;;;;;;10.50;5.00;;;;;;;;;;5012299;28;20180;-52
2023/05/19 10:50:09;;;;;;;14.13;5.38;;;;;;;;;;5011107;28;20184;-52
2023/05/19 10:52:39;;;;;;;11.35;5.10;;;;;;;;;;5011748;28;20552;-52
2023/05/19 10:55:14;;;;;;;10.80;4.80;;;;;;;;;;5011652;28;20271;-53
2023/05/19 10:57:52;;;;;;;9.25;4.93;;;;;;;;;;5012060;28;20192;-52
2023/05/19 11:00:29;;;;;;;9.05;4.30;;;;;;;;;;5022182;28;20199;-52
2023/05/19 11:03:12;;;;;;;13.05;4.82;;;;;;;;;;5009107;28;20243;-52
2023/05/19 11:05:38;;;;;;;11.82;4.40;;;;;;;;;;5008924;28;20179;-52
2023/05/19 11:08:10;;;;;;;12.00;4.45;;;;;;;;;;5014364;28;20185;-52
2023/05/19 11:10:36;;;;;;;8.98;3.90;;;;;;;;;;5007494;28;20180;-52
2023/05/19 11:13:03;;;;;;;10.07;4.18;;;;;;;;;;5029844;28;20560;-52
2023/05/19 11:15:33;;;;;;;8.43;4.35;;;;;;;;;;5010166;28;20196;-52
2023/05/19 11:18:00;;;;;;;12.38;4.75;;;;;;;;;;5014726;28;20189;-52
2023/05/19 11:20:27;;;;;;;12.73;3.75;;;;;;;;;;5012799;28;20206;-52
2023/05/19 11:23:10;;;;;;;10.50;4.00;;;;;;;;;;5012723;28;20473;-52
2023/05/19 11:25:42;;;;;;;10.40;4.40;;;;;;;;;;5009494;28;20641;-52
2023/05/19 11:28:10;;;;;;;9.13;4.10;;;;;;;;;;5007077;28;20181;-52
2023/05/19 11:30:37;;;;;;;9.65;3.70;;;;;;;;;;5005738;28;20227;-53
2023/05/19 11:33:03;;;;;;;8.80;3.75;;;;;;;;;;5013831;28;20267;-52
2023/05/19 11:35:29;;;;;;;8.80;3.80;;;;;;;;;;5006121;28;20189;-52
2023/05/19 11:37:56;;;;;;;8.10;4.20;;;;;;;;;;5013368;28;20192;-52
2023/05/19 11:40:22;;;;;;;8.00;3.50;;;;;;;;;;5012765;28;20184;-52
2023/05/19 11:42:48;;;;;;;9.98;3.92;;;;;;;;;;5007917;28;20477;-52
2023/05/19 11:45:14;;;;;;;7.55;3.90;;;;;;;;;;5004192;28;20209;-52
2023/05/19 11:47:40;;;;;;;7.97;3.40;;;;;;;;;;5012707;28;20194;-52
2023/05/19 11:50:06;;;;;;;8.55;4.22;;;;;;;;;;5013653;28;20492;-52
2023/05/19 11:52:32;;;;;;;6.65;3.53;;;;;;;;;;5005433;28;20678;-52
2023/05/19 11:55:01;;;;;;;9.27;3.60;;;;;;;;;;5004195;28;20222;-52
2023/05/19 11:57:27;;;;;;;8.38;3.70;;;;;;;;;;5012680;28;20192;-52
2023/05/19 11:59:55;;;;;;;7.80;3.97;;;;;;;;;;5011079;28;20212;-52
2023/05/19 12:02:23;;;;;;;6.32;3.25;;;;;;;;;;5011718;28;20192;-52
2023/05/19 12:04:49;;;;;;;8.23;3.60;;;;;;;;;;5013642;28;20200;-53
2023/05/19 12:07:17;;;;;;;8.63;3.60;;;;;;;;;;5013961;28;20615;-53
2023/05/19 12:09:44;;;;;;;6.50;3.55;;;;;;;;;;5011528;28;20268;-53
2023/05/19 12:12:12;;;;;;;8.27;3.50;;;;;;;;;;5011695;28;20180;-52
2023/05/19 12:14:38;;;;;;;7.40;3.13;;;;;;;;;;5006786;28;20480;-53
2023/05/19 12:17:11;;;;;;;7.57;3.55;;;;;;;;;;5007584;28;20199;-52
2023/05/19 12:19:37;;;;;;;7.55;3.70;;;;;;;;;;5005263;28;20778;-52
2023/05/19 12:22:03;;;;;;;5.95;3.30;;;;;;;;;;5008824;28;20204;-52
2023/05/19 12:24:29;;;;;;;8.48;3.70;;;;;;;;;;5011215;28;20185;-52
2023/05/19 12:27:12;;;;;;;7.93;3.38;;;;;;;;;;5012280;28;20484;-53
2023/05/19 12:29:38;;;;;;;7.82;3.13;;;;;;;;;;5008734;28;20191;-53
2023/05/19 12:32:06;;;;;;;8.13;3.33;;;;;;;;;;5004484;28;20192;-52
2023/05/19 12:34:34;;;;;;;7.82;3.30;;;;;;;;;;5005132;28;20200;-53
2023/05/19 12:37:01;;;;;;;6.82;2.92;;;;;;;;;;5008171;28;20263;-52
2023/05/19 12:39:27;;;;;;;6.13;3.30;;;;;;;;;;5003259;28;20181;-52
2023/05/19 12:42:00;;;;;;;6.50;3.40;;;;;;;;;;5002413;28;20197;-52
2023/05/19 12:44:27;;;;;;;6.18;3.10;;;;;;;;;;5011086;28;20208;-52
2023/05/19 12:46:53;;;;;;;6.93;3.20;;;;;;;;;;5003469;28;20200;-53
2023/05/19 12:49:19;;;;;;;6.38;3.30;;;;;;;;;;5005511;28;20176;-52
2023/05/19 12:51:51;;;;;;;6.80;2.85;;;;;;;;;;5008296;28;20185;-52
2023/05/19 12:54:20;;;;;;;6.35;3.13;;;;;;;;;;5004819;28;20189;-52
2023/05/19 12:56:50;;;;;;;5.05;2.88;;;;;;;;;;5007938;28;20191;-52
2023/05/19 12:59:26;;;;;;;5.93;3.28;;;;;;;;;;5005600;28;20208;-52
2023/05/19 13:01:55;;;;;;;5.57;3.25;;;;;;;;;;5012054;28;20208;-52
2023/05/19 13:04:21;;;;;;;7.07;3.42;;;;;;;;;;5007547;28;20189;-52
2023/05/19 13:06:48;;;;;;;4.05;2.60;;;;;;;;;;5008684;28;20181;-52
2023/05/19 13:09:16;;;;;;;8.05;3.20;;;;;;;;;;5009558;28;20460;-52
2023/05/19 13:11:42;;;;;;;7.20;3.03;;;;;;;;;;5008735;28;20188;-52
2023/05/19 13:14:08;;;;;;;5.65;2.85;;;;;;;;;;5010088;28;20184;-52
2023/05/19 13:16:34;;;;;;;4.30;2.50;;;;;;;;;;5010037;28;20434;-52
2023/05/19 13:19:00;;;;;;;5.75;2.47;;;;;;;;;;5005482;28;20261;-52
2023/05/19 13:21:26;;;;;;;4.47;2.45;;;;;;;;;;5008972;28;20299;-52
2023/05/19 13:23:52;;;;;;;4.78;2.50;;;;;;;;;;5008114;28;20192;-52
2023/05/19 13:26:18;;;;;;;4.28;2.58;;;;;;;;;;5011126;28;20231;-52
2023/05/19 13:28:44;;;;;;;4.78;2.60;;;;;;;;;;5007659;28;20545;-52
2023/05/19 13:31:09;;;;;;;4.45;2.80;;;;;;;;;;5006738;28;20180;-52
2023/05/19 13:33:35;;;;;;;4.13;2.95;;;;;;;;;;5006134;28;20615;-52
2023/05/19 13:36:01;;;;;;;4.90;2.58;;;;;;;;;;5022927;28;20467;-52
2023/05/19 13:38:29;;;;;;;5.53;2.85;;;;;;;;;;5011873;28;20180;-52
2023/05/19 13:40:55;;;;;;;4.93;2.10;;;;;;;;;;5005936;28;20185;-52
2023/05/19 13:43:21;;;;;;;5.40;2.70;;;;;;;;;;5029437;28;20250;-52
2023/05/19 13:45:47;;;;;;;5.80;2.92;;;;;;;;;;5008515;28;20524;-52
2023/05/19 13:48:13;;;;;;;6.60;3.03;;;;;;;;;;5012928;28;20228;-53
2023/05/19 13:50:39;;;;;;;4.78;2.40;;;;;;;;;;5008248;28;20212;-52
2023/05/19 13:53:05;;;;;;;5.55;2.53;;;;;;;;;;5007927;28;20220;-52
2023/05/19 13:55:31;;;;;;;7.13;2.70;;;;;;;;;;5006469;28;20181;-52
2023/05/19 13:57:57;;;;;;;9.25;2.95;;;;;;;;;;5008608;28;20259;-52
2023/05/19 14:00:23;;;;;;;4.95;2.50;;;;;;;;;;5008134;28;20268;-52
2023/05/19 14:02:49;;;;;;;4.50;2.45;;;;;;;;;;5012627;28;20210;-52
2023/05/19 14:05:15;;;;;;;7.40;2.22;;;;;;;;;;5009032;28;20181;-52
2023/05/19 14:07:41;;;;;;;6.00;2.47;;;;;;;;;;5008730;28;20597;-52
2023/05/19 14:10:07;;;;;;;12.15;3.13;;;;;;;;;;5008931;28;20263;-52
2023/05/19 14:12:34;;;;;;;12.82;3.33;;;;;;;;;;5009152;28;20251;-52
2023/05/19 14:15:01;;;;;;;9.98;2.88;;;;;;;;;;5008713;28;20196;-52
2023/05/19 14:17:27;;;;;;;6.55;2.40;;;;;;;;;;5007437;28;20192;-52
2023/05/19 14:19:53;;;;;;;6.00;2.78;;;;;;;;;;5010398;28;20221;-52
2023/05/19 14:22:19;;;;;;;4.78;2.65;;;;;;;;;;5006909;28;20243;-52
2023/05/19 14:24:45;;;;;;;5.07;2.10;;;;;;;;;;5009709;28;20177;-52
2023/05/19 14:27:10;;;;;;;4.47;2.08;;;;;;;;;;5011960;28;20243;-52
2023/05/19 14:29:36;;;;;;;3.55;2.20;;;;;;;;;;5014257;28;20557;-52
2023/05/19 14:32:02;;;;;;;4.28;2.28;;;;;;;;;;5011915;28;20180;-52
2023/05/19 14:34:28;;;;;;;5.07;2.15;;;;;;;;;;5011434;28;20789;-52
2023/05/19 14:36:54;;;;;;;4.32;1.88;;;;;;;;;;5007781;28;20189;-52